createdAt,value
2023-04-02T00:00:10.905Z,2.04
2023-04-02T00:03:12.452Z,2.03
2023-04-02T00:05:55.256Z,2.04
2023-04-02T00:08:45.913Z,2.00
2023-04-02T00:11:16.392Z,1.98
2023-04-02T00:13:49.613Z,2.00
2023-04-02T00:16:42.848Z,1.96
2023-04-02T00:19:26.413Z,1.92
2023-04-02T00:22:22.905Z,1.93
2023-04-02T00:24:57.584Z,1.93
2023-04-02T00:27:28.982Z,1.90
2023-04-02T00:29:59.493Z,1.87
2023-04-02T00:32:33.099Z,1.85
2023-04-02T00:35:11.123Z,1.78
2023-04-02T00:37:43.544Z,1.67
2023-04-02T00:40:25.832Z,1.63
2023-04-02T00:43:04.896Z,1.61
2023-04-02T00:45:38.206Z,1.60
2023-04-02T00:48:50.503Z,1.62
2023-04-02T00:51:48.207Z,1.60
2023-04-02T00:54:22.155Z,1.61
2023-04-02T00:56:56.616Z,1.62
2023-04-02T00:59:40.121Z,1.63
2023-04-02T01:02:15.158Z,1.60
2023-04-02T01:05:23.768Z,1.62
2023-04-02T01:08:41.426Z,1.63
2023-04-02T01:11:31.080Z,1.62
2023-04-02T01:15:07.402Z,1.57
2023-04-02T01:18:06.117Z,1.55
2023-04-02T01:20:55.841Z,1.51
2023-04-02T01:24:33.433Z,1.53
2023-04-02T01:27:32.715Z,1.48
2023-04-02T01:30:05.341Z,1.43
2023-04-02T01:32:40.270Z,1.41
2023-04-02T01:35:35.738Z,1.42
2023-04-02T01:38:47.274Z,1.41
2023-04-02T01:41:35.803Z,1.34
2023-04-02T01:44:17.531Z,1.33
2023-04-02T01:46:59.686Z,1.30
2023-04-02T01:49:33.019Z,1.28
2023-04-02T01:52:09.593Z,1.27
2023-04-02T01:54:53.657Z,1.27
2023-04-02T01:57:29.765Z,1.24
2023-04-02T02:00:17.608Z,1.24
2023-04-02T02:02:52.471Z,1.23
2023-04-02T02:05:34.542Z,1.25
2023-04-02T02:08:05.683Z,1.26
2023-04-02T02:10:56.042Z,1.24
2023-04-02T02:13:31.546Z,1.23
2023-04-02T02:16:07.108Z,1.22
2023-04-02T02:18:47.823Z,1.22
2023-04-02T02:21:46.684Z,1.25
2023-04-02T02:24:28.924Z,1.24
2023-04-02T02:27:24.615Z,1.23
2023-04-02T02:30:01.937Z,1.20
2023-04-02T02:33:02.154Z,1.20
2023-04-02T02:35:37.741Z,1.23
2023-04-02T02:38:31.648Z,1.20
2023-04-02T02:41:04.844Z,1.17
2023-04-02T02:43:40.679Z,1.16
2023-04-02T02:46:33.491Z,1.12
2023-04-02T02:49:09.269Z,1.12
2023-04-02T02:52:02.504Z,1.12
2023-04-02T02:54:36.577Z,1.10
2023-04-02T02:57:14.350Z,1.12
2023-04-02T02:59:49.855Z,1.12
2023-04-02T03:02:50.488Z,1.12
2023-04-02T03:05:28.443Z,1.12
2023-04-02T03:08:03.647Z,1.10
2023-04-02T03:11:18.445Z,1.10
2023-04-02T03:14:30.626Z,1.10
2023-04-02T03:17:38.478Z,1.12
2023-04-02T03:20:40.547Z,1.06
2023-04-02T03:23:30.684Z,1.07
2023-04-02T03:26:12.574Z,1.07
2023-04-02T03:29:03.985Z,1.06
2023-04-02T03:32:08.278Z,1.05
2023-04-02T03:34:54.992Z,1.07
2023-04-02T03:37:50.617Z,1.09
2023-04-02T03:40:45.123Z,1.05
2023-04-02T03:43:29.270Z,1.05
2023-04-02T03:46:22.402Z,1.05
2023-04-02T03:49:12.244Z,1.05
2023-04-02T03:52:17.588Z,0.99
2023-04-02T03:55:04.030Z,0.98
2023-04-02T03:58:07.306Z,1.00
2023-04-02T04:00:57.118Z,0.99
2023-04-02T04:03:36.129Z,0.99
2023-04-02T04:06:25.117Z,1.00
2023-04-02T04:09:38.833Z,1.05
2023-04-02T04:12:48.472Z,1.06
2023-04-02T04:16:39.274Z,1.08
2023-04-02T04:19:52.797Z,1.07
2023-04-02T04:22:50.193Z,1.04
2023-04-02T04:28:44.441Z,1.01
2023-04-02T04:31:42.951Z,1.02
2023-04-02T04:35:08.635Z,1.03
2023-04-02T04:38:37.480Z,1.00
2023-04-02T04:42:12.542Z,0.97
2023-04-02T04:45:32.655Z,0.98
2023-04-02T04:48:41.253Z,0.99
2023-04-02T04:51:58.059Z,1.07
2023-04-02T04:55:04.557Z,1.10
2023-04-02T04:58:36.694Z,1.06
2023-04-02T05:01:44.948Z,1.03
2023-04-02T05:04:44.001Z,1.03
2023-04-02T05:07:48.750Z,1.01
2023-04-02T05:10:59.257Z,1.01
2023-04-02T05:14:17.131Z,1.02
2023-04-02T05:17:43.774Z,0.98
2023-04-02T05:20:48.682Z,0.95
2023-04-02T05:23:40.509Z,0.92
2023-04-02T05:26:33.978Z,0.94
2023-04-02T05:29:34.001Z,0.93
2023-04-02T05:32:44.792Z,0.93
2023-04-02T05:35:48.825Z,0.96
2023-04-02T05:38:33.546Z,0.97
2023-04-02T05:41:40.156Z,0.97
2023-04-02T05:44:42.095Z,0.98
2023-04-02T05:47:28.758Z,0.98
2023-04-02T05:50:22.882Z,0.99
2023-04-02T05:53:04.225Z,0.99
2023-04-02T05:55:45.353Z,1.01
2023-04-02T05:58:37.554Z,1.01
2023-04-02T06:01:39.870Z,1.00
2023-04-02T06:04:34.837Z,1.00
2023-04-02T06:07:16.102Z,1.01
2023-04-02T06:09:53.458Z,1.04
2023-04-02T06:12:35.701Z,1.01
2023-04-02T06:15:06.946Z,1.01
2023-04-02T06:18:01.230Z,1.01
2023-04-02T06:20:29.849Z,1.05
2023-04-02T06:23:18.772Z,1.09
2023-04-02T06:25:54.893Z,1.14
2023-04-02T06:28:41.280Z,1.14
2023-04-02T06:31:23.562Z,1.14
2023-04-02T06:33:55.180Z,1.14
2023-04-02T06:36:30.130Z,1.16
2023-04-02T06:39:07.005Z,1.16
2023-04-02T06:41:35.607Z,1.22
2023-04-02T06:44:15.240Z,1.22
2023-04-02T06:46:48.417Z,1.25
2023-04-02T06:49:31.252Z,1.28
2023-04-02T06:52:01.598Z,1.31
2023-04-02T06:54:30.542Z,1.30
2023-04-02T06:56:59.006Z,1.30
2023-04-02T06:59:27.597Z,1.32
2023-04-02T07:02:06.906Z,1.31
2023-04-02T07:04:35.597Z,1.33
2023-04-02T07:07:04.357Z,1.34
2023-04-02T07:09:33.172Z,1.37
2023-04-02T07:12:01.970Z,1.43
2023-04-02T07:14:30.323Z,1.46
2023-04-02T07:16:59.023Z,1.47
2023-04-02T07:19:27.614Z,1.47
2023-04-02T07:21:56.152Z,1.46
2023-04-02T07:24:24.330Z,1.45
2023-04-02T07:26:52.838Z,1.44
2023-04-02T07:29:21.194Z,1.47
2023-04-02T07:31:49.488Z,1.52
2023-04-02T07:34:17.912Z,1.56
2023-04-02T07:36:49.719Z,1.59
2023-04-02T07:39:21.858Z,1.64
2023-04-02T07:41:56.551Z,1.66
2023-04-02T07:44:24.885Z,1.67
2023-04-02T07:46:53.195Z,1.69
2023-04-02T07:49:21.802Z,1.69
2023-04-02T07:51:52.907Z,1.69
2023-04-02T07:54:21.436Z,1.67
2023-04-02T07:56:50.239Z,1.67
2023-04-02T07:59:18.850Z,1.69
2023-04-02T08:01:48.548Z,1.70
2023-04-02T08:04:22.083Z,1.72
2023-04-02T08:07:00.227Z,1.77
2023-04-02T08:09:28.786Z,1.75
2023-04-02T08:11:57.441Z,1.70
2023-04-02T08:14:26.086Z,1.68
2023-04-02T08:16:56.455Z,1.68
2023-04-02T08:19:24.987Z,1.64
2023-04-02T08:21:54.092Z,1.58
2023-04-02T08:24:23.115Z,1.56
2023-04-02T08:26:54.596Z,1.61
2023-04-02T08:29:22.916Z,1.67
2023-04-02T08:31:51.274Z,1.68
2023-04-02T08:34:19.538Z,1.66
2023-04-02T08:36:48.189Z,1.64
2023-04-02T08:39:16.518Z,1.63
2023-04-02T08:41:51.693Z,1.60
2023-04-02T08:44:36.909Z,1.57
2023-04-02T08:47:11.055Z,1.56
2023-04-02T08:49:53.840Z,1.58
2023-04-02T08:52:34.273Z,1.64
2023-04-02T08:55:05.058Z,1.62
2023-04-02T08:57:42.073Z,1.56
2023-04-02T09:00:22.453Z,1.57
2023-04-02T09:03:09.156Z,1.60
2023-04-02T09:05:42.704Z,1.61
2023-04-02T09:08:21.439Z,1.58
2023-04-02T09:10:59.025Z,1.57
2023-04-02T09:13:29.711Z,1.59
2023-04-02T09:16:03.097Z,1.68
2023-04-02T09:18:32.980Z,1.76
2023-04-02T09:21:19.273Z,1.83
2023-04-02T09:23:48.167Z,1.89
2023-04-02T09:26:31.349Z,1.94
2023-04-02T09:29:33.370Z,2.04
2023-04-02T09:32:28.353Z,2.12
2023-04-02T09:35:18.497Z,2.27
2023-04-02T09:38:30.933Z,2.47
2023-04-02T09:41:18.728Z,2.58
2023-04-02T09:43:47.095Z,2.65
2023-04-02T09:46:23.067Z,2.72
2023-04-02T09:49:01.349Z,2.80
2023-04-02T09:51:35.201Z,2.75
2023-04-02T09:54:10.186Z,2.78
2023-04-02T09:56:40.324Z,2.68
2023-04-02T09:59:22.016Z,2.51
2023-04-02T10:01:53.718Z,2.50
2023-04-02T10:04:44.810Z,2.47
2023-04-02T10:07:44.997Z,2.39
2023-04-02T10:10:16.912Z,2.37
2023-04-02T10:13:03.006Z,2.37
2023-04-02T10:15:42.625Z,2.44
2023-04-02T10:18:42.511Z,2.57
2023-04-02T10:21:15.762Z,2.65
2023-04-02T10:23:44.485Z,2.72
2023-04-02T10:26:58.159Z,2.94
2023-04-02T10:29:52.260Z,3.15
2023-04-02T10:32:23.997Z,3.13
2023-04-02T10:34:57.258Z,3.13
2023-04-02T10:37:44.152Z,3.20
2023-04-02T10:40:29.818Z,3.30
2023-04-02T10:43:34.031Z,3.26
2023-04-02T10:46:14.850Z,3.20
2023-04-02T10:49:00.159Z,3.11
2023-04-02T10:51:38.962Z,3.00
2023-04-02T10:54:48.295Z,3.04
2023-04-02T10:57:48.717Z,3.09
2023-04-02T11:00:28.046Z,3.17
2023-04-02T11:03:13.560Z,3.18
2023-04-02T11:06:12.431Z,3.16
2023-04-02T11:08:49.283Z,3.18
2023-04-02T11:11:24.877Z,3.22
2023-04-02T11:14:01.044Z,3.20
2023-04-02T11:16:30.198Z,3.18
2023-04-02T11:19:38.073Z,3.20
2023-04-02T11:22:22.127Z,3.24
2023-04-02T11:24:53.399Z,3.32
2023-04-02T11:27:29.738Z,3.32
2023-04-02T11:30:18.287Z,3.34
2023-04-02T11:32:49.786Z,3.34
2023-04-02T11:35:33.399Z,3.36
2023-04-02T11:38:23.636Z,3.36
2023-04-02T11:40:59.123Z,3.34
2023-04-02T11:43:33.672Z,3.38
2023-04-02T11:46:18.905Z,3.42
2023-04-02T11:48:47.621Z,3.45
2023-04-02T11:51:36.346Z,3.45
2023-04-02T11:54:05.828Z,3.47
2023-04-02T11:56:50.619Z,3.57
2023-04-02T11:59:46.338Z,3.78
2023-04-02T12:02:30.895Z,4.04
2023-04-02T12:05:14.800Z,4.32
2023-04-02T12:08:06.460Z,4.54
2023-04-02T12:10:55.566Z,4.76
2023-04-02T12:13:42.352Z,4.89
2023-04-02T12:16:14.778Z,4.83
2023-04-02T12:18:53.992Z,4.87
2023-04-02T12:21:28.681Z,4.79
2023-04-02T12:24:01.145Z,4.76
2023-04-02T12:26:42.436Z,4.68
2023-04-02T12:29:25.066Z,4.59
2023-04-02T12:31:58.690Z,4.49
2023-04-02T12:34:30.717Z,4.37
2023-04-02T12:37:05.630Z,4.30
2023-04-02T12:39:35.141Z,4.22
2023-04-02T12:42:03.568Z,4.24
2023-04-02T12:44:32.834Z,4.30
2023-04-02T12:47:01.693Z,4.40
2023-04-02T12:49:42.211Z,4.61
2023-04-02T12:52:16.930Z,4.69
2023-04-02T12:54:49.972Z,4.66
2023-04-02T12:57:27.044Z,4.59
2023-04-02T13:00:16.792Z,4.51
2023-04-02T13:02:48.369Z,4.50
2023-04-02T13:05:35.560Z,4.53
2023-04-02T13:08:05.847Z,4.56
2023-04-02T13:10:35.435Z,4.62
2023-04-02T13:13:04.331Z,4.53
2023-04-02T13:15:36.823Z,4.41
2023-04-02T13:18:13.297Z,4.34
2023-04-02T13:21:05.696Z,4.34
2023-04-02T13:23:38.012Z,4.33
2023-04-02T13:26:09.368Z,4.38
2023-04-02T13:28:38.925Z,4.34
2023-04-02T13:31:18.248Z,4.30
2023-04-02T13:33:46.401Z,4.22
2023-04-02T13:36:15.310Z,4.19
2023-04-02T13:38:53.796Z,4.14
2023-04-02T13:41:32.072Z,4.12
2023-04-02T13:44:03.076Z,4.12
2023-04-02T13:46:34.404Z,4.15
2023-04-02T13:49:03.049Z,4.22
2023-04-02T13:51:45.444Z,4.32
2023-04-02T13:54:31.681Z,4.40
2023-04-02T13:57:00.219Z,4.39
2023-04-02T13:59:30.477Z,4.36
2023-04-02T14:02:08.196Z,4.31
2023-04-02T14:04:49.322Z,4.28
2023-04-02T14:07:35.193Z,4.31
2023-04-02T14:10:31.218Z,4.34
2023-04-02T14:14:00.589Z,4.37
2023-04-02T14:17:13.949Z,4.33
2023-04-02T14:20:22.761Z,4.26
2023-04-02T14:23:13.159Z,4.25
2023-04-02T14:26:02.288Z,4.28
2023-04-02T14:29:05.701Z,4.29
2023-04-02T14:32:51.774Z,4.30
2023-04-02T14:36:12.252Z,4.31
2023-04-02T14:39:21.963Z,4.34
2023-04-02T14:42:12.766Z,4.34
2023-04-02T14:45:01.568Z,4.36
2023-04-02T14:47:39.330Z,4.38
2023-04-02T14:50:22.704Z,4.41
2023-04-02T14:52:58.585Z,4.46
2023-04-02T14:55:47.367Z,4.51
2023-04-02T14:58:33.827Z,4.58
2023-04-02T15:01:21.079Z,4.64
2023-04-02T15:04:36.445Z,4.69
2023-04-02T15:07:41.792Z,4.82
2023-04-02T15:10:48.349Z,5.10
2023-04-02T15:13:23.623Z,5.37
2023-04-02T15:16:06.734Z,5.54
2023-04-02T15:19:05.108Z,5.58
2023-04-02T15:22:28.562Z,5.52
2023-04-02T15:25:21.098Z,5.41
2023-04-02T15:28:02.590Z,5.37
2023-04-02T15:30:38.315Z,5.35
2023-04-02T15:33:52.376Z,5.32
2023-04-02T15:36:28.571Z,5.30
2023-04-02T15:39:25.003Z,5.25
2023-04-02T15:42:09.272Z,5.21
2023-04-02T15:44:47.808Z,5.22
2023-04-02T15:47:34.480Z,5.22
2023-04-02T15:50:24.329Z,5.20
2023-04-02T15:53:25.005Z,5.18
2023-04-02T15:56:24.478Z,5.14
2023-04-02T15:59:16.645Z,5.13
2023-04-02T16:02:14.539Z,5.14
2023-04-02T16:04:54.300Z,5.22
2023-04-02T16:07:37.073Z,5.26
2023-04-02T16:10:30.279Z,5.23
2023-04-02T16:13:31.299Z,5.21
2023-04-02T16:16:12.957Z,5.22
2023-04-02T16:18:53.768Z,5.19
2023-04-02T16:21:27.432Z,5.19
2023-04-02T16:23:55.718Z,5.17
2023-04-02T16:26:27.271Z,5.14
2023-04-02T16:29:38.012Z,5.13
2023-04-02T16:32:33.022Z,5.12
2023-04-02T16:35:27.229Z,5.11
2023-04-02T16:38:44.257Z,5.09
2023-04-02T16:41:34.608Z,5.08
2023-04-02T16:44:26.717Z,5.08
2023-04-02T16:47:01.307Z,5.04
2023-04-02T16:49:43.706Z,5.01
2023-04-02T16:52:36.325Z,4.99
2023-04-02T16:55:41.437Z,4.97
2023-04-02T16:58:18.670Z,4.93
2023-04-02T17:01:05.202Z,4.88
2023-04-02T17:03:54.897Z,4.84
2023-04-02T17:06:43.568Z,4.81
2023-04-02T17:09:21.853Z,4.77
2023-04-02T17:11:56.412Z,4.74
2023-04-02T17:14:53.289Z,4.74
2023-04-02T17:17:23.288Z,4.73
2023-04-02T17:19:59.012Z,4.73
2023-04-02T17:22:31.437Z,4.72
2023-04-02T17:25:07.301Z,4.70
2023-04-02T17:27:43.828Z,4.66
2023-04-02T17:30:39.922Z,4.64
2023-04-02T17:33:13.622Z,4.62
2023-04-02T17:36:08.779Z,4.60
2023-04-02T17:39:02.279Z,4.58
2023-04-02T17:41:36.921Z,4.55
2023-04-02T17:44:31.113Z,4.52
2023-04-02T17:47:17.638Z,4.50
2023-04-02T17:50:20.063Z,4.49
2023-04-02T17:53:01.730Z,4.49
2023-04-02T17:55:41.117Z,4.49
2023-04-02T17:58:28.510Z,4.48
2023-04-02T18:01:23.625Z,4.45
2023-04-02T18:04:12.740Z,4.43
2023-04-02T18:07:00.695Z,4.38
2023-04-02T18:09:45.709Z,4.33
2023-04-02T18:12:58.289Z,4.29
2023-04-02T18:15:46.428Z,4.25
2023-04-02T18:18:42.811Z,4.21
2023-04-02T18:21:35.993Z,4.18
2023-04-02T18:24:29.577Z,4.14
2023-04-02T18:27:26.597Z,4.13
2023-04-02T18:30:09.458Z,4.13
2023-04-02T18:32:53.800Z,4.17
2023-04-02T18:36:05.552Z,4.17
2023-04-02T18:38:56.832Z,4.13
2023-04-02T18:42:08.365Z,4.06
2023-04-02T18:45:20.339Z,3.99
2023-04-02T18:48:59.949Z,3.93
2023-04-02T18:51:49.490Z,3.90
2023-04-02T18:54:49.501Z,3.87
2023-04-02T18:57:31.127Z,3.87
2023-04-02T19:00:05.981Z,3.82
2023-04-02T19:02:46.495Z,3.77
2023-04-02T19:05:28.994Z,3.73
2023-04-02T19:08:27.863Z,3.70
2023-04-02T19:11:04.836Z,3.71
2023-04-02T19:13:33.741Z,3.75
2023-04-02T19:16:17.529Z,3.76
2023-04-02T19:19:20.353Z,3.80
2023-04-02T19:21:51.790Z,3.83
2023-04-02T19:24:29.694Z,3.85
2023-04-02T19:27:26.047Z,3.86
2023-04-02T19:30:16.960Z,3.90
2023-04-02T19:33:30.714Z,3.91
2023-04-02T19:36:16.182Z,3.90
2023-04-02T19:39:19.937Z,3.87
2023-04-02T19:41:54.120Z,3.81
2023-04-02T19:44:25.210Z,3.76
2023-04-02T19:46:53.904Z,3.70
2023-04-02T19:49:40.010Z,3.64
2023-04-02T19:52:09.330Z,3.56
2023-04-02T19:54:40.921Z,3.47
2023-04-02T19:57:16.021Z,3.38
2023-04-02T19:59:44.905Z,3.25
2023-04-02T20:02:14.165Z,3.11
2023-04-02T20:04:42.936Z,3.00
2023-04-02T20:07:11.759Z,2.88
2023-04-02T20:09:43.109Z,2.78
2023-04-02T20:12:11.853Z,2.67
2023-04-02T20:14:40.490Z,2.58
2023-04-02T20:17:09.116Z,2.50
2023-04-02T20:19:37.693Z,2.43
2023-04-02T20:22:06.552Z,2.35
2023-04-02T20:24:35.603Z,2.26
2023-04-02T20:27:04.322Z,2.20
2023-04-02T20:29:35.926Z,2.17
2023-04-02T20:32:07.571Z,2.09
2023-04-02T20:34:37.049Z,2.05
2023-04-02T20:37:05.586Z,1.99
2023-04-02T20:39:34.068Z,1.94
2023-04-02T20:42:03.743Z,1.90
2023-04-02T20:44:32.118Z,1.85
2023-04-02T20:47:00.570Z,1.79
2023-04-02T20:49:29.137Z,1.75
2023-04-02T20:52:00.260Z,1.69
2023-04-02T20:54:29.003Z,1.63
2023-04-02T20:56:57.559Z,1.64
2023-04-02T20:59:26.545Z,1.63
2023-04-02T21:01:55.064Z,1.57
2023-04-02T21:04:26.809Z,1.50
2023-04-02T21:06:57.220Z,1.42
2023-04-02T21:09:25.630Z,1.34
2023-04-02T21:11:54.017Z,1.29
2023-04-02T21:14:23.131Z,1.22
2023-04-02T21:16:51.982Z,1.16
2023-04-02T21:19:20.542Z,1.11
2023-04-02T21:21:49.044Z,1.02
2023-04-02T21:24:17.421Z,0.94
2023-04-02T21:26:46.680Z,0.87
2023-04-02T21:29:15.138Z,0.83
2023-04-02T21:31:44.284Z,0.81
2023-04-02T21:34:17.308Z,0.80
2023-04-02T21:36:49.093Z,0.77
2023-04-02T21:39:21.408Z,0.70
2023-04-02T21:41:52.079Z,0.66
2023-04-02T21:44:22.573Z,0.64
2023-04-02T21:46:53.900Z,0.57
2023-04-02T21:49:23.228Z,0.52
2023-04-02T21:51:52.599Z,0.49
2023-04-02T21:54:21.473Z,0.42
2023-04-02T21:56:50.324Z,0.37
2023-04-02T21:59:19.215Z,0.35
2023-04-02T22:01:56.430Z,0.31
2023-04-02T22:04:25.980Z,0.30
2023-04-02T22:06:54.744Z,0.28
2023-04-02T22:09:26.921Z,0.27
2023-04-02T22:12:02.203Z,0.25
2023-04-02T22:14:30.992Z,0.23
2023-04-02T22:17:08.926Z,0.17
2023-04-02T22:19:38.378Z,0.09
2023-04-02T22:22:07.101Z,0.04
2023-04-02T22:24:35.613Z,-0.00
2023-04-02T22:27:04.311Z,-0.08
2023-04-02T22:29:32.632Z,-0.13
2023-04-02T22:32:04.195Z,-0.19
2023-04-02T22:34:32.893Z,-0.23
2023-04-02T22:37:02.708Z,-0.23
2023-04-02T22:39:31.228Z,-0.24
2023-04-02T22:41:59.480Z,-0.26
2023-04-02T22:44:28.518Z,-0.32
2023-04-02T22:47:06.697Z,-0.36
2023-04-02T22:49:35.037Z,-0.38
2023-04-02T22:52:06.134Z,-0.39
2023-04-02T22:54:34.548Z,-0.43
2023-04-02T22:57:02.687Z,-0.43
2023-04-02T22:59:30.994Z,-0.47
2023-04-02T23:01:59.336Z,-0.53
2023-04-02T23:04:28.016Z,-0.57
2023-04-02T23:06:56.788Z,-0.63
2023-04-02T23:09:25.114Z,-0.63
2023-04-02T23:11:53.494Z,-0.64
2023-04-02T23:14:21.918Z,-0.67
2023-04-02T23:16:50.537Z,-0.68
2023-04-02T23:19:19.127Z,-0.71
2023-04-02T23:21:47.793Z,-0.74
2023-04-02T23:24:18.903Z,-0.78
2023-04-02T23:26:48.861Z,-0.79
2023-04-02T23:29:17.291Z,-0.80
2023-04-02T23:31:49.054Z,-0.87
2023-04-02T23:34:17.287Z,-0.94
2023-04-02T23:36:45.562Z,-0.96
2023-04-02T23:39:14.427Z,-0.99
2023-04-02T23:41:43.539Z,-1.02
2023-04-02T23:44:12.219Z,-1.08
2023-04-02T23:46:40.391Z,-1.12
2023-04-02T23:49:12.864Z,-1.13
2023-04-02T23:51:41.658Z,-1.16
2023-04-02T23:54:12.023Z,-1.16
2023-04-02T23:56:41.336Z,-1.18
2023-04-02T23:59:10.107Z,-1.21
